This is the latest recevied weather packets stored in our database for station/object ED1ZAI-13. If no packets are shown the sender has not sent any weather packets the latest 1 day(s).
| Time | Temp. | Humidity | Pressure | Rain* | Wind** | Luminosity | Snow |
|---|---|---|---|---|---|---|---|
| 1778002293 | 13.89° C | 36% | 1009.6 hPa | 0 mm | 0.89 m/s, 281° | - | - |
| 1778001693 | 15.56° C | 36% | 1009.7 hPa | 0 mm | 0.45 m/s, 84° | - | - |
| 1778001092 | 15.56° C | 39% | 1009.7 hPa | 0 mm | 0.45 m/s, 301° | - | - |
| 1778000492 | 13.89° C | 39% | 1009.5 hPa | 0 mm | 0.45 m/s, 275° | - | - |
| 1777999892 | 15.56° C | 38% | 1009.6 hPa | 0 mm | 0.89 m/s, 289° | - | - |
| 1777999292 | 15° C | 38% | 1009.6 hPa | 0 mm | 0.89 m/s, 345° | - | - |
| 1777998692 | 16.11° C | 35% | 1009.7 hPa | 0 mm | 0.45 m/s, 342° | - | - |
| 1777998093 | 16.67° C | 34% | 1009.6 hPa | 0 mm | 0.89 m/s, 312° | - | - |
| 1777997493 | 12.78° C | 43% | 1009.5 hPa | 0 mm | 0.89 m/s, 263° | - | - |
| 1777996893 | 15.56° C | 37% | 1009.4 hPa | 0 mm | 0.89 m/s, 282° | - | - |
| 1777996292 | 15.56° C | 37% | 1009.5 hPa | 0 mm | 0.45 m/s, 305° | - | - |
| 1777995692 | 15° C | 36% | 1009.5 hPa | 0 mm | 1.34 m/s, 299° | - | - |
| 1777995094 | 14.44° C | 37% | 1009.6 hPa | 0 mm | 0.45 m/s, 359° | - | - |
| 1777994493 | 15.56° C | 35% | 1009.6 hPa | 0 mm | 0.89 m/s, 318° | - | - |
| 1777993892 | 16.67° C | 34% | 1009.6 hPa | 0 mm | 0.45 m/s, 337° | - | - |
| 1777993294 | 15° C | 39% | 1009.7 hPa | 0 mm | 0.45 m/s, 359° | - | - |
| 1777992691 | 15° C | 41% | 1009.7 hPa | 0 mm | 1.34 m/s, 234° | - | - |
| 1777992091 | 15.56° C | 38% | 1009.7 hPa | 0 mm | 0.89 m/s, 56° | - | - |
| 1777991493 | 14.44° C | 36% | 1009.7 hPa | 0 mm | 1.34 m/s, 270° | - | - |
| 1777990892 | 13.33° C | 39% | 1009.5 hPa | 0 mm | 2.24 m/s, 301° | - | - |
| 1777990292 | 13.89° C | 42% | 1009.7 hPa | 0 mm | 1.79 m/s, 285° | - | - |
| 1777989692 | 13.33° C | 38% | 1009.7 hPa | 0 mm | 2.24 m/s, 230° | - | - |
| 1777988947 | 12.78° C | 39% | 1009.6 hPa | 0 mm | 2.24 m/s, 253° | - | - |
| 1777988347 | 14.44° C | 39% | 1009.8 hPa | 0 mm | 1.79 m/s, 330° | - | - |
| 1777987747 | 12.78° C | 38% | 1009.8 hPa | 0 mm | 1.34 m/s, 281° | - | - |
* Rain latest hour (hover to see other rain measurements)
** Current wind speed in m/s (hover to see current wind gust speed)